createdAt,value
2023-03-05T00:08:46.229Z,21.1
2023-03-05T00:14:39.268Z,21.1
2023-03-05T00:20:31.268Z,20.9
2023-03-05T00:25:37.322Z,20.9
2023-03-05T00:31:32.738Z,20.9
2023-03-05T00:37:25.608Z,20.8
2023-03-05T00:43:19.176Z,20.8
2023-03-05T00:49:12.440Z,20.7
2023-03-05T00:55:04.853Z,20.7
2023-03-05T01:00:57.563Z,20.6
2023-03-05T01:06:51.315Z,20.6
2023-03-05T01:12:43.018Z,20.6
2023-03-05T01:18:20.435Z,20.5
2023-03-05T01:24:13.224Z,20.5
2023-03-05T01:29:50.040Z,20.4
2023-03-05T01:35:13.489Z,20.4
2023-03-05T01:41:07.185Z,20.4
2023-03-05T01:47:00.134Z,20.4
2023-03-05T01:52:37.658Z,20.3
2023-03-05T01:58:31.051Z,20.3
2023-03-05T02:04:24.200Z,20.3
2023-03-05T02:10:00.700Z,20.3
2023-03-05T02:15:38.167Z,20.3
2023-03-05T02:21:15.013Z,20.3
2023-03-05T02:27:07.085Z,20.3
2023-03-05T02:32:28.800Z,20.4
2023-03-05T02:38:21.467Z,20.4
2023-03-05T02:44:13.819Z,20.5
2023-03-05T02:50:06.787Z,20.6
2023-03-05T02:55:59.884Z,20.6
2023-03-05T03:01:52.975Z,20.7
2023-03-05T03:07:46.053Z,20.8
2023-03-05T03:13:08.221Z,20.9
2023-03-05T03:18:45.836Z,21.1
2023-03-05T03:24:38.552Z,21.2
2023-03-05T03:30:16.297Z,21.3
2023-03-05T03:35:53.369Z,21.4
2023-03-05T03:41:30.674Z,21.6
2023-03-05T03:47:23.616Z,21.7
2023-03-05T03:52:59.816Z,21.8
2023-03-05T03:58:51.844Z,21.8
2023-03-05T04:04:44.768Z,21.9
2023-03-05T04:10:35.976Z,21.9
2023-03-05T04:16:29.152Z,21.9
2023-03-05T04:21:51.304Z,22
2023-03-05T04:27:43.556Z,22
2023-03-05T04:33:36.473Z,22.1
2023-03-05T04:39:29.936Z,22.1
2023-03-05T04:45:21.182Z,22.1
2023-03-05T04:51:13.635Z,22.1
2023-03-05T04:57:06.312Z,22.1
2023-03-05T05:02:29.713Z,22.1
2023-03-05T05:08:06.630Z,22.2
2023-03-05T05:13:59.662Z,22.2
2023-03-05T05:19:52.674Z,22.2
2023-03-05T05:25:45.210Z,22.3
2023-03-05T05:31:38.405Z,22.3
2023-03-05T05:37:31.221Z,22.3
2023-03-05T05:43:23.809Z,22.3
2023-03-05T05:49:17.453Z,22.3
2023-03-05T05:55:10.872Z,22.3
2023-03-05T06:00:47.474Z,22.2
2023-03-05T06:06:43.487Z,22.2
2023-03-05T06:12:35.980Z,22.2
2023-03-05T06:18:37.448Z,22.2
2023-03-05T06:24:30.159Z,22.2
2023-03-05T06:30:22.609Z,22.1
2023-03-05T06:36:15.705Z,22.1
2023-03-05T06:42:08.256Z,22.1
2023-03-05T06:48:01.017Z,22.1
2023-03-05T06:53:38.922Z,22.1
2023-03-05T06:59:32.651Z,22.1
2023-03-05T07:05:25.706Z,22.1
2023-03-05T07:11:18.361Z,22.1
2023-03-05T07:17:13.921Z,22.1
2023-03-05T07:23:06.464Z,22.1
2023-03-05T07:28:59.406Z,22.1
2023-03-05T07:34:53.005Z,22.1
2023-03-05T07:40:45.759Z,22.1
2023-03-05T07:46:23.862Z,22.1
2023-03-05T07:52:17.240Z,22
2023-03-05T07:57:55.440Z,22
2023-03-05T08:03:49.237Z,22
2023-03-05T08:09:43.191Z,22.1
2023-03-05T08:15:35.976Z,22
2023-03-05T08:21:29.462Z,22
2023-03-05T08:27:07.210Z,22
2023-03-05T08:33:01.295Z,22
2023-03-05T08:38:55.193Z,22
2023-03-05T08:44:49.536Z,22
2023-03-05T08:50:42.619Z,22
2023-03-05T08:56:35.585Z,22
2023-03-05T09:02:28.622Z,22
2023-03-05T09:08:05.822Z,22
2023-03-05T09:13:58.470Z,21.9
2023-03-05T09:19:52.093Z,21.9
2023-03-05T09:25:45.853Z,22
2023-03-05T09:31:39.458Z,22
2023-03-05T09:37:33.282Z,21.9
2023-03-05T09:43:25.876Z,21.9
2023-03-05T09:49:19.733Z,21.9
2023-03-05T09:55:12.094Z,21.9
2023-03-05T10:01:04.136Z,21.9
2023-03-05T10:06:56.920Z,21.9
2023-03-05T10:12:49.590Z,21.9
2023-03-05T10:18:43.005Z,21.9
2023-03-05T10:24:05.344Z,21.9
2023-03-05T10:29:57.447Z,21.9
2023-03-05T10:35:51.270Z,21.9
2023-03-05T10:41:45.464Z,21.9
2023-03-05T10:47:38.422Z,21.9
2023-03-05T10:53:31.863Z,21.9
2023-03-05T10:59:09.151Z,21.9
2023-03-05T11:05:04.865Z,21.9
2023-03-05T11:10:57.946Z,21.9
2023-03-05T11:16:37.618Z,21.9
2023-03-05T11:22:32.825Z,49.8
2023-03-05T11:28:32.791Z,47.6
2023-03-05T11:34:26.532Z,42.8
2023-03-05T11:40:03.986Z,39.2
2023-03-05T11:45:58.415Z,36.3
2023-03-05T11:51:53.100Z,34
2023-03-05T11:57:47.110Z,32.3
2023-03-05T12:03:43.481Z,35.2
2023-03-05T12:09:20.943Z,54.1
2023-03-05T12:15:14.404Z,47.1
2023-03-05T12:21:08.246Z,42.4
2023-03-05T12:26:30.097Z,39.2
2023-03-05T12:32:26.559Z,36.4
2023-03-05T12:38:42.698Z,34.2
2023-03-05T12:44:36.745Z,32.4
2023-03-05T12:50:15.406Z,31.1
2023-03-05T12:55:53.117Z,29.9
2023-03-05T13:01:32.689Z,29
2023-03-05T13:07:10.616Z,28.3
2023-03-05T13:13:04.179Z,27.5
2023-03-05T13:18:58.299Z,26.9
2023-03-05T13:24:52.184Z,26.3
2023-03-05T13:30:46.069Z,25.9
2023-03-05T13:36:48.822Z,25.4
2023-03-05T13:42:43.969Z,25.1
2023-03-05T13:48:37.259Z,24.8
2023-03-05T13:54:31.162Z,24.6
2023-03-05T14:00:27.358Z,24.3
2023-03-05T14:06:25.240Z,24.1
2023-03-05T14:12:18.783Z,23.9
2023-03-05T14:17:25.278Z,23.7
2023-03-05T14:23:26.376Z,23.5
2023-03-05T14:29:20.489Z,23.4
2023-03-05T14:35:14.130Z,23.3
2023-03-05T14:40:53.494Z,23.1
2023-03-05T14:46:30.666Z,23.1
2023-03-05T14:51:51.413Z,23
2023-03-05T14:57:28.404Z,22.9
2023-03-05T15:03:24.019Z,22.8
2023-03-05T15:09:17.359Z,22.8
2023-03-05T15:15:10.290Z,22.7
2023-03-05T15:21:02.926Z,22.6
2023-03-05T15:26:26.245Z,22.6
2023-03-05T15:32:07.419Z,22.5
2023-03-05T15:37:13.724Z,22.4
2023-03-05T15:42:50.855Z,22.4
2023-03-05T15:48:28.674Z,22.3
2023-03-05T15:54:07.155Z,22.3
2023-03-05T15:59:44.379Z,22.2
2023-03-05T16:05:21.702Z,22.2
2023-03-05T16:11:00.319Z,22.1
2023-03-05T16:16:38.671Z,22.1
2023-03-05T16:22:16.177Z,22.1
2023-03-05T16:27:53.090Z,22.1
2023-03-05T16:33:30.434Z,22
2023-03-05T16:38:52.898Z,22
2023-03-05T16:44:55.144Z,21.9
2023-03-05T16:50:17.816Z,21.9
2023-03-05T16:56:01.748Z,21.9
2023-03-05T17:01:44.553Z,21.9
2023-03-05T17:07:20.512Z,21.9
2023-03-05T17:12:59.897Z,21.9
2023-03-05T17:18:37.950Z,21.8
2023-03-05T17:24:17.186Z,21.8
2023-03-05T17:29:54.812Z,21.8
2023-03-05T17:35:43.190Z,21.8
2023-03-05T17:41:19.872Z,21.8
2023-03-05T17:47:13.058Z,21.6
2023-03-05T17:52:50.174Z,21.6
2023-03-05T17:58:44.212Z,21.6
2023-03-05T18:04:37.482Z,21.6
2023-03-05T18:10:14.854Z,21.6
2023-03-05T18:15:52.831Z,21.6
2023-03-05T18:21:48.685Z,21.6
2023-03-05T18:27:41.681Z,21.6
2023-03-05T18:33:33.904Z,21.5
2023-03-05T18:39:27.490Z,21.4
2023-03-05T18:45:10.158Z,21.4
2023-03-05T18:50:48.201Z,21.4
2023-03-05T18:56:41.160Z,21.4
2023-03-05T19:02:33.801Z,21.4
2023-03-05T19:08:28.106Z,21.4
2023-03-05T19:14:05.629Z,21.4
2023-03-05T19:19:44.232Z,21.4
2023-03-05T19:25:36.725Z,21.4
2023-03-05T19:31:29.096Z,21.4
2023-03-05T19:37:22.955Z,21.4
2023-03-05T19:43:15.748Z,21.4
2023-03-05T19:49:09.998Z,21.4
2023-03-05T19:55:06.050Z,21.3
2023-03-05T20:00:12.995Z,21.3
2023-03-05T20:06:07.144Z,21.3
2023-03-05T20:11:46.386Z,21.3
2023-03-05T20:17:38.904Z,21.3
2023-03-05T20:23:32.906Z,21.3
2023-03-05T20:29:17.573Z,21.3
2023-03-05T20:35:12.374Z,21.3
2023-03-05T20:41:06.708Z,21.3
2023-03-05T20:46:44.941Z,21.2
2023-03-05T20:52:23.054Z,21.2
2023-03-05T21:14:10.820Z,21.1
2023-03-05T21:20:06.702Z,21.1
2023-03-05T21:25:44.092Z,21
2023-03-05T21:31:22.075Z,21.1
2023-03-05T21:37:17.714Z,21
2023-03-05T21:42:54.478Z,21
2023-03-05T21:48:48.386Z,21
2023-03-05T21:54:40.564Z,21
2023-03-05T22:00:33.049Z,20.9
2023-03-05T22:06:10.123Z,20.9
2023-03-05T22:11:47.320Z,20.9
2023-03-05T22:17:40.426Z,20.9
2023-03-05T22:23:18.258Z,21
2023-03-05T22:29:10.892Z,20.9
2023-03-05T22:34:48.043Z,20.9
2023-03-05T22:40:41.713Z,20.9
2023-03-05T22:46:02.912Z,20.9
2023-03-05T22:51:55.965Z,20.9
2023-03-05T23:02:54.826Z,20.9
2023-03-05T23:08:47.885Z,20.9
2023-03-05T23:14:40.906Z,20.9
2023-03-05T23:20:02.258Z,20.8
2023-03-05T23:25:39.528Z,20.8
2023-03-05T23:31:17.666Z,20.8
2023-03-05T23:36:54.915Z,20.8
2023-03-05T23:42:17.401Z,20.8
2023-03-05T23:47:54.893Z,20.8
2023-03-05T23:53:51.219Z,20.8
2023-03-05T23:59:12.801Z,20.8
